sensor_id;sensor_type;location;lat;lon;timestamp;temperature;humidity
31967;DHT22;18496;52.042;6.812;2023-06-24T00:01:36;24.80;84.70
31967;DHT22;18496;52.042;6.812;2023-06-24T00:03:42;24.80;85.60
31967;DHT22;18496;52.042;6.812;2023-06-24T00:05:50;24.80;85.10
31967;DHT22;18496;52.042;6.812;2023-06-24T00:07:53;24.70;85.40
31967;DHT22;18496;52.042;6.812;2023-06-24T00:10:00;24.70;85.90
31967;DHT22;18496;52.042;6.812;2023-06-24T00:12:04;24.70;86.00
31967;DHT22;18496;52.042;6.812;2023-06-24T00:14:08;24.60;86.30
31967;DHT22;18496;52.042;6.812;2023-06-24T00:16:12;24.60;86.60
31967;DHT22;18496;52.042;6.812;2023-06-24T00:18:15;24.60;86.60
31967;DHT22;18496;52.042;6.812;2023-06-24T00:20:19;24.60;86.60
31967;DHT22;18496;52.042;6.812;2023-06-24T00:22:23;24.50;86.70
31967;DHT22;18496;52.042;6.812;2023-06-24T00:24:27;24.50;87.10
31967;DHT22;18496;52.042;6.812;2023-06-24T00:26:31;24.50;87.40
31967;DHT22;18496;52.042;6.812;2023-06-24T00:28:35;24.50;87.30
31967;DHT22;18496;52.042;6.812;2023-06-24T00:30:39;24.50;87.40
31967;DHT22;18496;52.042;6.812;2023-06-24T00:32:43;24.40;87.50
31967;DHT22;18496;52.042;6.812;2023-06-24T00:34:47;24.40;87.60
31967;DHT22;18496;52.042;6.812;2023-06-24T00:36:51;24.40;87.80
31967;DHT22;18496;52.042;6.812;2023-06-24T00:38:55;24.40;88.10
31967;DHT22;18496;52.042;6.812;2023-06-24T00:41:00;24.30;88.20
31967;DHT22;18496;52.042;6.812;2023-06-24T00:43:05;24.30;88.10
31967;DHT22;18496;52.042;6.812;2023-06-24T00:45:14;24.30;88.30
31967;DHT22;18496;52.042;6.812;2023-06-24T00:47:20;24.30;88.50
31967;DHT22;18496;52.042;6.812;2023-06-24T00:49:23;24.30;88.40
31967;DHT22;18496;52.042;6.812;2023-06-24T00:51:27;24.20;88.70
31967;DHT22;18496;52.042;6.812;2023-06-24T00:53:33;24.10;88.80
31967;DHT22;18496;52.042;6.812;2023-06-24T00:55:37;24.10;88.90
31967;DHT22;18496;52.042;6.812;2023-06-24T00:57:44;24.10;89.10
31967;DHT22;18496;52.042;6.812;2023-06-24T00:59:47;24.10;89.40
31967;DHT22;18496;52.042;6.812;2023-06-24T01:01:52;24.10;89.70
31967;DHT22;18496;52.042;6.812;2023-06-24T01:03:57;24.00;89.40
31967;DHT22;18496;52.042;6.812;2023-06-24T01:06:04;24.00;89.70
31967;DHT22;18496;52.042;6.812;2023-06-24T01:08:07;24.00;89.70
31967;DHT22;18496;52.042;6.812;2023-06-24T01:10:12;24.00;90.10
31967;DHT22;18496;52.042;6.812;2023-06-24T01:12:16;24.00;90.10
31967;DHT22;18496;52.042;6.812;2023-06-24T01:14:19;24.00;90.00
31967;DHT22;18496;52.042;6.812;2023-06-24T01:18:52;24.00;90.10
31967;DHT22;18496;52.042;6.812;2023-06-24T01:21:15;23.90;90.10
31967;DHT22;18496;52.042;6.812;2023-06-24T01:30:38;23.80;90.30
31967;DHT22;18496;52.042;6.812;2023-06-24T01:32:56;23.80;90.50
31967;DHT22;18496;52.042;6.812;2023-06-24T01:35:08;23.80;90.40
31967;DHT22;18496;52.042;6.812;2023-06-24T01:37:19;23.80;90.40
31967;DHT22;18496;52.042;6.812;2023-06-24T01:39:27;23.80;90.30
31967;DHT22;18496;52.042;6.812;2023-06-24T01:41:41;23.70;90.40
31967;DHT22;18496;52.042;6.812;2023-06-24T01:43:45;23.70;90.50
31967;DHT22;18496;52.042;6.812;2023-06-24T01:45:52;23.70;90.50
31967;DHT22;18496;52.042;6.812;2023-06-24T01:50:11;23.60;90.60
31967;DHT22;18496;52.042;6.812;2023-06-24T01:52:17;23.60;90.80
31967;DHT22;18496;52.042;6.812;2023-06-24T01:54:22;23.60;90.80
31967;DHT22;18496;52.042;6.812;2023-06-24T01:56:28;23.60;90.70
31967;DHT22;18496;52.042;6.812;2023-06-24T01:58:35;23.70;90.70
31967;DHT22;18496;52.042;6.812;2023-06-24T02:00:40;23.70;90.50
31967;DHT22;18496;52.042;6.812;2023-06-24T02:02:45;23.70;90.50
31967;DHT22;18496;52.042;6.812;2023-06-24T02:04:51;23.70;90.50
31967;DHT22;18496;52.042;6.812;2023-06-24T02:06:55;23.60;90.70
31967;DHT22;18496;52.042;6.812;2023-06-24T02:09:01;23.60;90.90
31967;DHT22;18496;52.042;6.812;2023-06-24T02:11:07;23.60;91.00
31967;DHT22;18496;52.042;6.812;2023-06-24T02:13:12;23.60;90.90
31967;DHT22;18496;52.042;6.812;2023-06-24T02:15:17;23.50;91.10
31967;DHT22;18496;52.042;6.812;2023-06-24T02:17:24;23.50;91.10
31967;DHT22;18496;52.042;6.812;2023-06-24T02:19:30;23.50;91.00
31967;DHT22;18496;52.042;6.812;2023-06-24T02:21:35;23.60;90.80
31967;DHT22;18496;52.042;6.812;2023-06-24T02:23:40;23.60;90.80
31967;DHT22;18496;52.042;6.812;2023-06-24T02:25:44;23.50;90.80
31967;DHT22;18496;52.042;6.812;2023-06-24T02:27:48;23.60;90.90
31967;DHT22;18496;52.042;6.812;2023-06-24T02:29:52;23.50;90.70
31967;DHT22;18496;52.042;6.812;2023-06-24T02:31:56;23.50;90.60
31967;DHT22;18496;52.042;6.812;2023-06-24T02:34:00;23.60;90.60
31967;DHT22;18496;52.042;6.812;2023-06-24T02:36:04;23.60;90.60
31967;DHT22;18496;52.042;6.812;2023-06-24T02:38:08;23.70;90.70
31967;DHT22;18496;52.042;6.812;2023-06-24T02:40:12;23.70;90.70
31967;DHT22;18496;52.042;6.812;2023-06-24T02:42:16;23.70;90.60
31967;DHT22;18496;52.042;6.812;2023-06-24T02:44:19;23.70;90.60
31967;DHT22;18496;52.042;6.812;2023-06-24T02:46:24;23.70;90.50
31967;DHT22;18496;52.042;6.812;2023-06-24T02:48:29;23.70;90.40
31967;DHT22;18496;52.042;6.812;2023-06-24T02:50:34;23.60;90.50
31967;DHT22;18496;52.042;6.812;2023-06-24T02:52:39;23.60;90.40
31967;DHT22;18496;52.042;6.812;2023-06-24T02:54:46;23.60;90.40
31967;DHT22;18496;52.042;6.812;2023-06-24T02:57:10;23.70;90.50
31967;DHT22;18496;52.042;6.812;2023-06-24T02:59:37;23.70;90.50
31967;DHT22;18496;52.042;6.812;2023-06-24T03:01:46;23.60;90.50
31967;DHT22;18496;52.042;6.812;2023-06-24T03:03:54;23.70;90.50
31967;DHT22;18496;52.042;6.812;2023-06-24T03:05:59;23.60;90.50
31967;DHT22;18496;52.042;6.812;2023-06-24T03:08:07;23.60;90.50
31967;DHT22;18496;52.042;6.812;2023-06-24T03:10:13;23.60;90.50
31967;DHT22;18496;52.042;6.812;2023-06-24T03:12:18;23.50;90.50
31967;DHT22;18496;52.042;6.812;2023-06-24T03:14:22;23.50;90.50
31967;DHT22;18496;52.042;6.812;2023-06-24T03:16:26;23.40;90.60
31967;DHT22;18496;52.042;6.812;2023-06-24T03:18:43;23.40;90.80
31967;DHT22;18496;52.042;6.812;2023-06-24T03:20:46;23.40;90.90
31967;DHT22;18496;52.042;6.812;2023-06-24T03:22:54;23.40;90.90
31967;DHT22;18496;52.042;6.812;2023-06-24T03:25:00;23.40;91.00
31967;DHT22;18496;52.042;6.812;2023-06-24T03:27:03;23.30;90.90
31967;DHT22;18496;52.042;6.812;2023-06-24T03:29:15;23.30;91.00
31967;DHT22;18496;52.042;6.812;2023-06-24T03:31:27;23.30;91.00
31967;DHT22;18496;52.042;6.812;2023-06-24T03:33:31;23.30;91.20
31967;DHT22;18496;52.042;6.812;2023-06-24T03:35:36;23.40;91.20
31967;DHT22;18496;52.042;6.812;2023-06-24T03:37:43;23.40;91.10
31967;DHT22;18496;52.042;6.812;2023-06-24T03:39:47;23.40;91.00
31967;DHT22;18496;52.042;6.812;2023-06-24T03:41:51;23.40;91.00
31967;DHT22;18496;52.042;6.812;2023-06-24T03:43:55;23.40;91.00
31967;DHT22;18496;52.042;6.812;2023-06-24T03:45:59;23.30;91.00
31967;DHT22;18496;52.042;6.812;2023-06-24T03:48:04;23.30;91.50
31967;DHT22;18496;52.042;6.812;2023-06-24T03:50:09;23.20;91.30
31967;DHT22;18496;52.042;6.812;2023-06-24T03:52:13;23.20;91.40
31967;DHT22;18496;52.042;6.812;2023-06-24T03:54:19;23.20;91.50
31967;DHT22;18496;52.042;6.812;2023-06-24T03:56:23;23.20;91.50
31967;DHT22;18496;52.042;6.812;2023-06-24T03:58:27;23.10;91.40
31967;DHT22;18496;52.042;6.812;2023-06-24T04:00:31;23.20;91.60
31967;DHT22;18496;52.042;6.812;2023-06-24T04:02:35;23.20;91.50
31967;DHT22;18496;52.042;6.812;2023-06-24T04:04:40;23.20;91.60
31967;DHT22;18496;52.042;6.812;2023-06-24T04:06:43;23.20;91.80
31967;DHT22;18496;52.042;6.812;2023-06-24T04:08:50;23.20;91.80
31967;DHT22;18496;52.042;6.812;2023-06-24T04:10:58;23.20;91.50
31967;DHT22;18496;52.042;6.812;2023-06-24T04:13:06;23.20;91.30
31967;DHT22;18496;52.042;6.812;2023-06-24T04:15:11;23.20;91.40
31967;DHT22;18496;52.042;6.812;2023-06-24T04:17:15;23.20;91.30
31967;DHT22;18496;52.042;6.812;2023-06-24T04:19:18;23.10;91.20
31967;DHT22;18496;52.042;6.812;2023-06-24T04:21:22;23.20;91.30
31967;DHT22;18496;52.042;6.812;2023-06-24T04:23:28;23.20;91.30
31967;DHT22;18496;52.042;6.812;2023-06-24T04:25:32;23.30;91.30
31967;DHT22;18496;52.042;6.812;2023-06-24T04:27:36;23.30;91.20
31967;DHT22;18496;52.042;6.812;2023-06-24T04:29:41;23.30;91.20
31967;DHT22;18496;52.042;6.812;2023-06-24T04:31:45;23.30;91.30
31967;DHT22;18496;52.042;6.812;2023-06-24T04:33:48;23.30;91.00
31967;DHT22;18496;52.042;6.812;2023-06-24T04:35:52;23.30;90.80
31967;DHT22;18496;52.042;6.812;2023-06-24T04:37:57;23.30;90.90
31967;DHT22;18496;52.042;6.812;2023-06-24T04:40:01;23.20;90.80
31967;DHT22;18496;52.042;6.812;2023-06-24T04:42:05;23.20;90.90
31967;DHT22;18496;52.042;6.812;2023-06-24T04:44:09;23.20;91.10
31967;DHT22;18496;52.042;6.812;2023-06-24T04:46:12;23.20;91.10
31967;DHT22;18496;52.042;6.812;2023-06-24T04:48:16;23.20;90.90
31967;DHT22;18496;52.042;6.812;2023-06-24T04:50:20;23.30;91.10
31967;DHT22;18496;52.042;6.812;2023-06-24T04:52:24;23.30;90.90
31967;DHT22;18496;52.042;6.812;2023-06-24T04:54:27;23.40;90.90
31967;DHT22;18496;52.042;6.812;2023-06-24T04:56:31;23.40;90.80
31967;DHT22;18496;52.042;6.812;2023-06-24T04:58:34;23.50;90.60
31967;DHT22;18496;52.042;6.812;2023-06-24T05:00:38;23.60;90.70
31967;DHT22;18496;52.042;6.812;2023-06-24T05:02:42;23.60;90.50
31967;DHT22;18496;52.042;6.812;2023-06-24T05:04:45;23.50;90.60
31967;DHT22;18496;52.042;6.812;2023-06-24T05:06:49;23.60;90.80
31967;DHT22;18496;52.042;6.812;2023-06-24T05:08:53;23.60;90.50
31967;DHT22;18496;52.042;6.812;2023-06-24T05:10:56;23.70;90.50
31967;DHT22;18496;52.042;6.812;2023-06-24T05:13:00;23.70;90.20
31967;DHT22;18496;52.042;6.812;2023-06-24T05:15:04;23.80;90.50
31967;DHT22;18496;52.042;6.812;2023-06-24T05:17:08;23.80;90.40
31967;DHT22;18496;52.042;6.812;2023-06-24T05:19:12;23.80;90.00
31967;DHT22;18496;52.042;6.812;2023-06-24T05:21:15;23.80;90.10
31967;DHT22;18496;52.042;6.812;2023-06-24T05:23:19;23.80;90.10
31967;DHT22;18496;52.042;6.812;2023-06-24T05:25:23;23.80;90.20
31967;DHT22;18496;52.042;6.812;2023-06-24T05:27:27;23.80;90.20
31967;DHT22;18496;52.042;6.812;2023-06-24T05:29:30;23.80;90.50
31967;DHT22;18496;52.042;6.812;2023-06-24T05:31:34;23.80;90.40
31967;DHT22;18496;52.042;6.812;2023-06-24T05:33:38;23.70;90.40
31967;DHT22;18496;52.042;6.812;2023-06-24T05:35:43;23.70;90.60
31967;DHT22;18496;52.042;6.812;2023-06-24T05:37:47;23.70;90.50
31967;DHT22;18496;52.042;6.812;2023-06-24T05:39:50;23.70;90.50
31967;DHT22;18496;52.042;6.812;2023-06-24T05:41:54;23.70;90.40
31967;DHT22;18496;52.042;6.812;2023-06-24T05:44:06;23.80;90.40
31967;DHT22;18496;52.042;6.812;2023-06-24T05:46:13;23.80;90.10
31967;DHT22;18496;52.042;6.812;2023-06-24T05:48:17;23.80;90.40
31967;DHT22;18496;52.042;6.812;2023-06-24T05:50:21;23.70;90.50
31967;DHT22;18496;52.042;6.812;2023-06-24T05:52:25;23.70;90.50
31967;DHT22;18496;52.042;6.812;2023-06-24T05:54:28;23.60;90.70
31967;DHT22;18496;52.042;6.812;2023-06-24T05:56:32;23.60;91.20
31967;DHT22;18496;52.042;6.812;2023-06-24T05:58:35;23.70;91.10
31967;DHT22;18496;52.042;6.812;2023-06-24T06:00:39;23.70;91.20
31967;DHT22;18496;52.042;6.812;2023-06-24T06:02:42;23.70;91.00
31967;DHT22;18496;52.042;6.812;2023-06-24T06:04:47;23.70;90.80
31967;DHT22;18496;52.042;6.812;2023-06-24T06:06:50;23.60;90.90
31967;DHT22;18496;52.042;6.812;2023-06-24T06:08:56;23.60;91.00
31967;DHT22;18496;52.042;6.812;2023-06-24T06:11:00;23.60;91.20
31967;DHT22;18496;52.042;6.812;2023-06-24T06:13:05;23.60;91.30
31967;DHT22;18496;52.042;6.812;2023-06-24T06:15:09;23.60;91.40
31967;DHT22;18496;52.042;6.812;2023-06-24T06:17:14;23.70;91.50
31967;DHT22;18496;52.042;6.812;2023-06-24T06:19:17;23.70;91.60
31967;DHT22;18496;52.042;6.812;2023-06-24T06:21:21;23.80;91.60
31967;DHT22;18496;52.042;6.812;2023-06-24T06:23:25;23.90;91.30
31967;DHT22;18496;52.042;6.812;2023-06-24T06:25:30;23.90;91.20
31967;DHT22;18496;52.042;6.812;2023-06-24T06:27:34;23.90;91.30
31967;DHT22;18496;52.042;6.812;2023-06-24T06:29:38;23.90;91.40
31967;DHT22;18496;52.042;6.812;2023-06-24T06:31:41;24.00;91.30
31967;DHT22;18496;52.042;6.812;2023-06-24T06:33:45;24.10;91.00
31967;DHT22;18496;52.042;6.812;2023-06-24T06:35:49;24.10;91.00
31967;DHT22;18496;52.042;6.812;2023-06-24T06:37:52;24.10;91.10
31967;DHT22;18496;52.042;6.812;2023-06-24T06:39:57;24.00;91.00
31967;DHT22;18496;52.042;6.812;2023-06-24T06:42:01;23.90;91.20
31967;DHT22;18496;52.042;6.812;2023-06-24T06:44:05;23.90;91.50
31967;DHT22;18496;52.042;6.812;2023-06-24T06:46:08;24.00;91.50
31967;DHT22;18496;52.042;6.812;2023-06-24T06:48:12;24.00;91.60
31967;DHT22;18496;52.042;6.812;2023-06-24T06:50:16;24.10;91.60
31967;DHT22;18496;52.042;6.812;2023-06-24T06:52:20;24.10;91.50
31967;DHT22;18496;52.042;6.812;2023-06-24T06:54:23;24.10;91.50
31967;DHT22;18496;52.042;6.812;2023-06-24T06:56:28;24.00;91.80
31967;DHT22;18496;52.042;6.812;2023-06-24T06:58:32;24.00;92.00
31967;DHT22;18496;52.042;6.812;2023-06-24T07:00:36;24.00;92.20
31967;DHT22;18496;52.042;6.812;2023-06-24T07:02:40;24.00;92.10
31967;DHT22;18496;52.042;6.812;2023-06-24T07:04:44;24.10;92.00
31967;DHT22;18496;52.042;6.812;2023-06-24T07:06:48;24.10;92.00
31967;DHT22;18496;52.042;6.812;2023-06-24T07:08:51;24.10;92.00
31967;DHT22;18496;52.042;6.812;2023-06-24T07:10:55;24.10;92.10
31967;DHT22;18496;52.042;6.812;2023-06-24T07:12:59;24.20;92.20
31967;DHT22;18496;52.042;6.812;2023-06-24T07:15:03;24.30;92.10
31967;DHT22;18496;52.042;6.812;2023-06-24T07:17:07;24.30;91.90
31967;DHT22;18496;52.042;6.812;2023-06-24T07:19:10;24.40;91.90
31967;DHT22;18496;52.042;6.812;2023-06-24T07:21:14;24.50;91.80
31967;DHT22;18496;52.042;6.812;2023-06-24T07:29:53;24.80;91.30
31967;DHT22;18496;52.042;6.812;2023-06-24T07:31:57;24.80;91.40
31967;DHT22;18496;52.042;6.812;2023-06-24T07:34:01;24.80;91.50
31967;DHT22;18496;52.042;6.812;2023-06-24T07:36:05;24.80;91.50
31967;DHT22;18496;52.042;6.812;2023-06-24T07:38:09;24.80;91.70
31967;DHT22;18496;52.042;6.812;2023-06-24T07:40:12;24.90;91.80
31967;DHT22;18496;52.042;6.812;2023-06-24T07:42:16;25.00;91.70
31967;DHT22;18496;52.042;6.812;2023-06-24T07:44:22;25.00;91.30
31967;DHT22;18496;52.042;6.812;2023-06-24T07:46:25;25.00;90.90
31967;DHT22;18496;52.042;6.812;2023-06-24T07:48:31;24.90;91.10
31967;DHT22;18496;52.042;6.812;2023-06-24T07:50:34;24.90;91.20
31967;DHT22;18496;52.042;6.812;2023-06-24T07:52:39;24.90;91.30
31967;DHT22;18496;52.042;6.812;2023-06-24T07:54:43;24.90;91.50
31967;DHT22;18496;52.042;6.812;2023-06-24T07:56:47;24.90;91.80
31967;DHT22;18496;52.042;6.812;2023-06-24T07:58:50;24.90;91.70
31967;DHT22;18496;52.042;6.812;2023-06-24T08:00:54;24.90;92.10
31967;DHT22;18496;52.042;6.812;2023-06-24T08:02:58;24.90;92.30
31967;DHT22;18496;52.042;6.812;2023-06-24T08:05:02;24.90;91.60
31967;DHT22;18496;52.042;6.812;2023-06-24T08:07:06;25.00;91.30
31967;DHT22;18496;52.042;6.812;2023-06-24T08:09:10;25.00;91.70
31967;DHT22;18496;52.042;6.812;2023-06-24T08:11:13;25.00;90.40
31967;DHT22;18496;52.042;6.812;2023-06-24T08:13:17;25.00;90.50
31967;DHT22;18496;52.042;6.812;2023-06-24T08:15:21;25.10;90.40
31967;DHT22;18496;52.042;6.812;2023-06-24T08:17:27;25.10;90.50
31967;DHT22;18496;52.042;6.812;2023-06-24T08:19:31;25.10;90.20
31967;DHT22;18496;52.042;6.812;2023-06-24T08:21:34;25.20;90.50
31967;DHT22;18496;52.042;6.812;2023-06-24T08:23:38;25.20;90.10
31967;DHT22;18496;52.042;6.812;2023-06-24T08:25:42;25.20;90.50
31967;DHT22;18496;52.042;6.812;2023-06-24T08:27:46;25.20;90.10
31967;DHT22;18496;52.042;6.812;2023-06-24T08:29:50;25.30;90.20
31967;DHT22;18496;52.042;6.812;2023-06-24T08:31:53;25.30;89.30
31967;DHT22;18496;52.042;6.812;2023-06-24T08:33:59;25.30;89.00
31967;DHT22;18496;52.042;6.812;2023-06-24T08:36:05;25.30;89.80
31967;DHT22;18496;52.042;6.812;2023-06-24T08:38:09;25.30;89.40
31967;DHT22;18496;52.042;6.812;2023-06-24T08:40:12;25.40;90.00
31967;DHT22;18496;52.042;6.812;2023-06-24T08:42:16;25.40;90.20
31967;DHT22;18496;52.042;6.812;2023-06-24T08:44:20;25.50;90.10
31967;DHT22;18496;52.042;6.812;2023-06-24T08:46:25;25.50;89.60
31967;DHT22;18496;52.042;6.812;2023-06-24T08:48:29;25.60;89.40
31967;DHT22;18496;52.042;6.812;2023-06-24T08:50:45;25.70;90.10
31967;DHT22;18496;52.042;6.812;2023-06-24T08:52:51;25.70;89.30
31967;DHT22;18496;52.042;6.812;2023-06-24T08:54:59;25.70;88.70
31967;DHT22;18496;52.042;6.812;2023-06-24T08:57:03;25.80;88.30
31967;DHT22;18496;52.042;6.812;2023-06-24T08:59:09;25.80;87.80
31967;DHT22;18496;52.042;6.812;2023-06-24T09:01:13;25.80;89.00
31967;DHT22;18496;52.042;6.812;2023-06-24T09:03:17;25.90;89.70
31967;DHT22;18496;52.042;6.812;2023-06-24T09:05:20;25.90;88.50
31967;DHT22;18496;52.042;6.812;2023-06-24T09:07:28;26.00;88.00
31967;DHT22;18496;52.042;6.812;2023-06-24T09:09:31;26.00;87.00
31967;DHT22;18496;52.042;6.812;2023-06-24T09:11:35;26.10;85.50
31967;DHT22;18496;52.042;6.812;2023-06-24T09:13:39;26.10;84.10
31967;DHT22;18496;52.042;6.812;2023-06-24T09:15:42;26.10;83.90
31967;DHT22;18496;52.042;6.812;2023-06-24T09:17:46;26.20;83.30
31967;DHT22;18496;52.042;6.812;2023-06-24T09:19:51;26.20;84.80
31967;DHT22;18496;52.042;6.812;2023-06-24T09:22:05;26.30;84.30
31967;DHT22;18496;52.042;6.812;2023-06-24T09:24:10;26.30;82.30
31967;DHT22;18496;52.042;6.812;2023-06-24T09:26:13;26.30;83.40
31967;DHT22;18496;52.042;6.812;2023-06-24T09:28:17;26.30;82.10
31967;DHT22;18496;52.042;6.812;2023-06-24T09:30:22;26.40;81.30
31967;DHT22;18496;52.042;6.812;2023-06-24T09:32:29;26.40;80.80
31967;DHT22;18496;52.042;6.812;2023-06-24T09:34:34;26.50;81.40
31967;DHT22;18496;52.042;6.812;2023-06-24T09:36:42;26.50;80.40
31967;DHT22;18496;52.042;6.812;2023-06-24T09:38:46;26.60;77.60
31967;DHT22;18496;52.042;6.812;2023-06-24T09:41:02;26.70;78.10
31967;DHT22;18496;52.042;6.812;2023-06-24T09:43:06;26.70;78.30
31967;DHT22;18496;52.042;6.812;2023-06-24T09:45:12;26.80;81.20
31967;DHT22;18496;52.042;6.812;2023-06-24T09:47:16;26.90;80.60
31967;DHT22;18496;52.042;6.812;2023-06-24T09:49:20;26.90;78.40
31967;DHT22;18496;52.042;6.812;2023-06-24T09:51:25;27.00;78.20
31967;DHT22;18496;52.042;6.812;2023-06-24T09:53:33;27.00;77.40
31967;DHT22;18496;52.042;6.812;2023-06-24T09:55:38;27.10;77.60
31967;DHT22;18496;52.042;6.812;2023-06-24T09:57:50;27.10;74.50
31967;DHT22;18496;52.042;6.812;2023-06-24T09:59:55;27.20;75.20
31967;DHT22;18496;52.042;6.812;2023-06-24T10:01:59;27.20;73.60
31967;DHT22;18496;52.042;6.812;2023-06-24T10:04:04;27.20;74.10
31967;DHT22;18496;52.042;6.812;2023-06-24T10:06:08;27.30;74.50
31967;DHT22;18496;52.042;6.812;2023-06-24T10:08:13;27.30;75.90
31967;DHT22;18496;52.042;6.812;2023-06-24T10:10:17;27.40;75.10
31967;DHT22;18496;52.042;6.812;2023-06-24T10:12:21;27.40;73.20
31967;DHT22;18496;52.042;6.812;2023-06-24T10:14:25;27.50;73.30
31967;DHT22;18496;52.042;6.812;2023-06-24T10:16:28;27.50;72.10
31967;DHT22;18496;52.042;6.812;2023-06-24T10:18:34;27.50;70.00
31967;DHT22;18496;52.042;6.812;2023-06-24T10:20:41;27.60;70.10
31967;DHT22;18496;52.042;6.812;2023-06-24T10:22:45;27.60;70.90
31967;DHT22;18496;52.042;6.812;2023-06-24T10:24:50;27.70;70.20
31967;DHT22;18496;52.042;6.812;2023-06-24T10:26:57;27.70;70.10
31967;DHT22;18496;52.042;6.812;2023-06-24T10:31:10;27.80;68.40
31967;DHT22;18496;52.042;6.812;2023-06-24T10:33:13;27.90;65.60
31967;DHT22;18496;52.042;6.812;2023-06-24T10:35:23;27.80;66.60
31967;DHT22;18496;52.042;6.812;2023-06-24T10:37:33;27.90;65.40
31967;DHT22;18496;52.042;6.812;2023-06-24T10:41:54;27.90;64.80
31967;DHT22;18496;52.042;6.812;2023-06-24T10:43:58;28.00;64.20
31967;DHT22;18496;52.042;6.812;2023-06-24T10:46:14;28.10;62.00
31967;DHT22;18496;52.042;6.812;2023-06-24T10:48:19;28.20;61.70
31967;DHT22;18496;52.042;6.812;2023-06-24T10:50:23;28.20;62.20
31967;DHT22;18496;52.042;6.812;2023-06-24T10:52:27;28.20;60.10
31967;DHT22;18496;52.042;6.812;2023-06-24T10:54:31;28.20;61.00
31967;DHT22;18496;52.042;6.812;2023-06-24T10:56:34;28.30;58.20
31967;DHT22;18496;52.042;6.812;2023-06-24T10:58:38;28.20;58.70
31967;DHT22;18496;52.042;6.812;2023-06-24T11:00:42;28.30;61.20
31967;DHT22;18496;52.042;6.812;2023-06-24T11:02:49;28.30;61.80
31967;DHT22;18496;52.042;6.812;2023-06-24T11:05:00;28.50;59.60
31967;DHT22;18496;52.042;6.812;2023-06-24T11:07:04;28.60;58.70
31967;DHT22;18496;52.042;6.812;2023-06-24T11:09:08;28.60;58.80
31967;DHT22;18496;52.042;6.812;2023-06-24T11:11:18;28.60;57.90
31967;DHT22;18496;52.042;6.812;2023-06-24T11:13:23;28.70;56.90
31967;DHT22;18496;52.042;6.812;2023-06-24T11:15:26;28.70;59.40
31967;DHT22;18496;52.042;6.812;2023-06-24T11:17:30;28.80;58.90
31967;DHT22;18496;52.042;6.812;2023-06-24T11:19:34;28.90;58.70
31967;DHT22;18496;52.042;6.812;2023-06-24T11:21:39;28.90;57.60
31967;DHT22;18496;52.042;6.812;2023-06-24T11:23:42;28.90;58.10
31967;DHT22;18496;52.042;6.812;2023-06-24T11:25:46;29.00;57.90
31967;DHT22;18496;52.042;6.812;2023-06-24T11:27:50;29.10;57.40
31967;DHT22;18496;52.042;6.812;2023-06-24T11:29:58;29.10;57.90
31967;DHT22;18496;52.042;6.812;2023-06-24T11:32:07;29.20;55.80
31967;DHT22;18496;52.042;6.812;2023-06-24T11:34:11;29.30;55.60
31967;DHT22;18496;52.042;6.812;2023-06-24T11:36:19;29.30;57.00
31967;DHT22;18496;52.042;6.812;2023-06-24T11:38:23;29.30;57.60
31967;DHT22;18496;52.042;6.812;2023-06-24T11:40:30;29.30;56.50
31967;DHT22;18496;52.042;6.812;2023-06-24T11:42:41;29.40;57.60
31967;DHT22;18496;52.042;6.812;2023-06-24T11:44:47;29.50;57.20
31967;DHT22;18496;52.042;6.812;2023-06-24T11:46:50;29.60;55.70
31967;DHT22;18496;52.042;6.812;2023-06-24T11:49:07;29.60;54.70
31967;DHT22;18496;52.042;6.812;2023-06-24T11:51:14;29.60;51.10
31967;DHT22;18496;52.042;6.812;2023-06-24T11:53:28;29.60;50.40
31967;DHT22;18496;52.042;6.812;2023-06-24T11:55:32;29.60;51.10
31967;DHT22;18496;52.042;6.812;2023-06-24T12:00:01;29.70;52.20
31967;DHT22;18496;52.042;6.812;2023-06-24T12:02:13;29.80;52.20
31967;DHT22;18496;52.042;6.812;2023-06-24T12:04:17;29.90;50.70
31967;DHT22;18496;52.042;6.812;2023-06-24T12:06:21;29.90;51.20
31967;DHT22;18496;52.042;6.812;2023-06-24T12:08:24;30.00;55.00
31967;DHT22;18496;52.042;6.812;2023-06-24T12:10:29;30.10;55.70
31967;DHT22;18496;52.042;6.812;2023-06-24T12:12:32;30.20;55.30
31967;DHT22;18496;52.042;6.812;2023-06-24T12:14:36;30.20;56.00
31967;DHT22;18496;52.042;6.812;2023-06-24T12:16:40;30.30;56.10
31967;DHT22;18496;52.042;6.812;2023-06-24T12:18:44;30.40;56.20
31967;DHT22;18496;52.042;6.812;2023-06-24T12:20:48;30.40;57.00
31967;DHT22;18496;52.042;6.812;2023-06-24T12:22:51;30.50;57.40
31967;DHT22;18496;52.042;6.812;2023-06-24T12:24:55;30.60;56.70
31967;DHT22;18496;52.042;6.812;2023-06-24T12:26:58;30.60;56.20
31967;DHT22;18496;52.042;6.812;2023-06-24T12:29:02;30.70;56.00
31967;DHT22;18496;52.042;6.812;2023-06-24T12:31:06;30.60;56.60
31967;DHT22;18496;52.042;6.812;2023-06-24T12:33:09;30.70;57.40
31967;DHT22;18496;52.042;6.812;2023-06-24T12:35:16;30.80;56.30
31967;DHT22;18496;52.042;6.812;2023-06-24T12:37:20;31.00;55.70
31967;DHT22;18496;52.042;6.812;2023-06-24T12:39:23;31.10;56.80
31967;DHT22;18496;52.042;6.812;2023-06-24T12:41:27;31.10;57.10
31967;DHT22;18496;52.042;6.812;2023-06-24T12:43:32;31.30;56.40
31967;DHT22;18496;52.042;6.812;2023-06-24T12:45:40;31.50;55.80
31967;DHT22;18496;52.042;6.812;2023-06-24T12:47:43;31.50;55.50
31967;DHT22;18496;52.042;6.812;2023-06-24T12:49:48;31.60;55.10
31967;DHT22;18496;52.042;6.812;2023-06-24T12:51:57;31.60;56.30
31967;DHT22;18496;52.042;6.812;2023-06-24T12:54:01;31.60;55.80
31967;DHT22;18496;52.042;6.812;2023-06-24T12:56:04;31.70;56.90
31967;DHT22;18496;52.042;6.812;2023-06-24T12:58:12;31.80;56.40
31967;DHT22;18496;52.042;6.812;2023-06-24T13:00:22;31.80;55.50
31967;DHT22;18496;52.042;6.812;2023-06-24T13:02:32;31.90;55.60
31967;DHT22;18496;52.042;6.812;2023-06-24T13:04:35;32.00;54.70
31967;DHT22;18496;52.042;6.812;2023-06-24T13:06:39;31.90;54.40
31967;DHT22;18496;52.042;6.812;2023-06-24T13:08:43;32.00;55.20
31967;DHT22;18496;52.042;6.812;2023-06-24T13:10:53;32.00;54.90
31967;DHT22;18496;52.042;6.812;2023-06-24T13:12:59;32.10;54.00
31967;DHT22;18496;52.042;6.812;2023-06-24T13:15:07;32.10;54.00
31967;DHT22;18496;52.042;6.812;2023-06-24T13:17:12;32.00;55.20
31967;DHT22;18496;52.042;6.812;2023-06-24T13:19:16;32.10;54.70
31967;DHT22;18496;52.042;6.812;2023-06-24T13:21:25;32.10;54.50
31967;DHT22;18496;52.042;6.812;2023-06-24T13:23:37;32.30;53.20
31967;DHT22;18496;52.042;6.812;2023-06-24T13:25:47;32.20;52.10
31967;DHT22;18496;52.042;6.812;2023-06-24T13:27:51;32.20;52.90
31967;DHT22;18496;52.042;6.812;2023-06-24T13:33:17;32.40;52.00
31967;DHT22;18496;52.042;6.812;2023-06-24T13:38:33;32.70;53.00
31967;DHT22;18496;52.042;6.812;2023-06-24T13:40:44;32.90;51.80
31967;DHT22;18496;52.042;6.812;2023-06-24T13:42:48;32.90;52.20